sensor_id;sensor_type;location;lat;lon;timestamp;P1;durP1;ratioP1;P2;durP2;ratioP2
52414;SDS011;38340;52.964;6.086;2022-12-18T00:01:20;95.63;;;38.55;;
52414;SDS011;38340;52.964;6.086;2022-12-18T00:03:51;81.53;;;34.72;;
52414;SDS011;38340;52.964;6.086;2022-12-18T00:06:18;82.75;;;35.38;;
52414;SDS011;38340;52.964;6.086;2022-12-18T00:08:44;85.20;;;35.92;;
52414;SDS011;38340;52.964;6.086;2022-12-18T00:11:11;79.10;;;33.38;;
52414;SDS011;38340;52.964;6.086;2022-12-18T00:13:38;78.47;;;35.17;;
52414;SDS011;38340;52.964;6.086;2022-12-18T00:16:05;82.97;;;33.03;;
52414;SDS011;38340;52.964;6.086;2022-12-18T00:18:35;75.28;;;32.28;;
52414;SDS011;38340;52.964;6.086;2022-12-18T00:21:02;76.10;;;32.97;;
52414;SDS011;38340;52.964;6.086;2022-12-18T00:23:30;82.45;;;33.20;;
52414;SDS011;38340;52.964;6.086;2022-12-18T00:26:00;77.03;;;34.17;;
52414;SDS011;38340;52.964;6.086;2022-12-18T00:28:27;73.13;;;32.75;;
52414;SDS011;38340;52.964;6.086;2022-12-18T00:31:02;68.75;;;30.50;;
52414;SDS011;38340;52.964;6.086;2022-12-18T00:33:29;77.18;;;32.85;;
52414;SDS011;38340;52.964;6.086;2022-12-18T00:36:05;73.40;;;29.88;;
52414;SDS011;38340;52.964;6.086;2022-12-18T00:38:38;76.43;;;32.95;;
52414;SDS011;38340;52.964;6.086;2022-12-18T00:41:04;74.32;;;31.42;;
52414;SDS011;38340;52.964;6.086;2022-12-18T00:43:30;77.28;;;32.13;;
52414;SDS011;38340;52.964;6.086;2022-12-18T00:45:56;81.97;;;33.65;;
52414;SDS011;38340;52.964;6.086;2022-12-18T00:48:22;70.60;;;30.92;;
52414;SDS011;38340;52.964;6.086;2022-12-18T00:50:48;71.07;;;30.33;;
52414;SDS011;38340;52.964;6.086;2022-12-18T00:53:14;78.05;;;32.97;;
52414;SDS011;38340;52.964;6.086;2022-12-18T00:55:40;79.05;;;32.38;;
52414;SDS011;38340;52.964;6.086;2022-12-18T00:58:06;84.95;;;33.60;;
52414;SDS011;38340;52.964;6.086;2022-12-18T01:00:32;77.70;;;30.27;;
52414;SDS011;38340;52.964;6.086;2022-12-18T01:02:58;72.60;;;30.63;;
52414;SDS011;38340;52.964;6.086;2022-12-18T01:05:24;70.78;;;30.05;;
52414;SDS011;38340;52.964;6.086;2022-12-18T01:07:50;76.65;;;33.67;;
52414;SDS011;38340;52.964;6.086;2022-12-18T01:10:16;65.72;;;29.23;;
52414;SDS011;38340;52.964;6.086;2022-12-18T01:12:41;71.80;;;31.10;;
52414;SDS011;38340;52.964;6.086;2022-12-18T01:15:07;68.90;;;30.00;;
52414;SDS011;38340;52.964;6.086;2022-12-18T01:17:34;66.70;;;30.67;;
52414;SDS011;38340;52.964;6.086;2022-12-18T01:20:00;73.30;;;31.20;;
52414;SDS011;38340;52.964;6.086;2022-12-18T01:22:26;70.07;;;30.90;;
52414;SDS011;38340;52.964;6.086;2022-12-18T01:24:52;80.00;;;34.53;;
52414;SDS011;38340;52.964;6.086;2022-12-18T01:27:17;77.78;;;32.78;;
52414;SDS011;38340;52.964;6.086;2022-12-18T01:29:43;79.13;;;34.08;;
52414;SDS011;38340;52.964;6.086;2022-12-18T01:32:09;67.88;;;30.42;;
52414;SDS011;38340;52.964;6.086;2022-12-18T01:34:35;79.32;;;32.45;;
52414;SDS011;38340;52.964;6.086;2022-12-18T01:37:02;75.32;;;31.00;;
52414;SDS011;38340;52.964;6.086;2022-12-18T01:39:29;78.50;;;32.88;;
52414;SDS011;38340;52.964;6.086;2022-12-18T01:41:55;94.13;;;33.17;;
52414;SDS011;38340;52.964;6.086;2022-12-18T01:47:24;76.60;;;30.85;;
52414;SDS011;38340;52.964;6.086;2022-12-18T01:50:05;72.93;;;32.20;;
52414;SDS011;38340;52.964;6.086;2022-12-18T01:52:43;70.57;;;31.10;;
52414;SDS011;38340;52.964;6.086;2022-12-18T01:55:12;68.85;;;31.50;;
52414;SDS011;38340;52.964;6.086;2022-12-18T01:57:39;75.57;;;33.20;;
52414;SDS011;38340;52.964;6.086;2022-12-18T02:00:08;71.18;;;30.63;;
52414;SDS011;38340;52.964;6.086;2022-12-18T02:02:36;74.13;;;31.27;;
52414;SDS011;38340;52.964;6.086;2022-12-18T02:05:03;77.18;;;31.85;;
52414;SDS011;38340;52.964;6.086;2022-12-18T02:07:42;78.10;;;33.90;;
52414;SDS011;38340;52.964;6.086;2022-12-18T02:10:21;67.43;;;30.00;;
52414;SDS011;38340;52.964;6.086;2022-12-18T02:13:03;77.55;;;33.33;;
52414;SDS011;38340;52.964;6.086;2022-12-18T02:18:20;74.10;;;31.77;;
52414;SDS011;38340;52.964;6.086;2022-12-18T02:20:59;72.07;;;31.45;;
52414;SDS011;38340;52.964;6.086;2022-12-18T02:23:45;76.97;;;33.50;;
52414;SDS011;38340;52.964;6.086;2022-12-18T02:26:17;80.75;;;32.83;;
52414;SDS011;38340;52.964;6.086;2022-12-18T02:28:46;75.53;;;32.25;;
52414;SDS011;38340;52.964;6.086;2022-12-18T02:33:48;78.68;;;33.58;;
52414;SDS011;38340;52.964;6.086;2022-12-18T02:36:16;76.50;;;33.55;;
52414;SDS011;38340;52.964;6.086;2022-12-18T02:38:43;78.68;;;33.88;;
52414;SDS011;38340;52.964;6.086;2022-12-18T02:41:11;79.18;;;32.90;;
52414;SDS011;38340;52.964;6.086;2022-12-18T02:43:38;79.78;;;33.80;;
52414;SDS011;38340;52.964;6.086;2022-12-18T02:48:52;74.47;;;33.25;;
52414;SDS011;38340;52.964;6.086;2022-12-18T02:51:26;80.07;;;34.13;;
52414;SDS011;38340;52.964;6.086;2022-12-18T02:54:05;86.95;;;36.05;;
52414;SDS011;38340;52.964;6.086;2022-12-18T02:56:51;87.47;;;37.47;;
52414;SDS011;38340;52.964;6.086;2022-12-18T02:59:26;82.43;;;35.78;;
52414;SDS011;38340;52.964;6.086;2022-12-18T03:02:02;91.93;;;35.67;;
52414;SDS011;38340;52.964;6.086;2022-12-18T03:04:43;79.60;;;33.25;;
52414;SDS011;38340;52.964;6.086;2022-12-18T03:07:28;82.60;;;33.78;;
52414;SDS011;38340;52.964;6.086;2022-12-18T03:10:11;82.30;;;34.25;;
52414;SDS011;38340;52.964;6.086;2022-12-18T03:12:43;110.10;;;38.17;;
52414;SDS011;38340;52.964;6.086;2022-12-18T03:15:18;80.65;;;35.10;;
52414;SDS011;38340;52.964;6.086;2022-12-18T03:17:59;78.05;;;34.25;;
52414;SDS011;38340;52.964;6.086;2022-12-18T03:20:28;70.65;;;33.40;;
52414;SDS011;38340;52.964;6.086;2022-12-18T03:22:58;84.07;;;36.15;;
52414;SDS011;38340;52.964;6.086;2022-12-18T03:25:29;83.68;;;34.92;;
52414;SDS011;38340;52.964;6.086;2022-12-18T03:27:56;71.93;;;34.00;;
52414;SDS011;38340;52.964;6.086;2022-12-18T03:30:26;75.13;;;34.13;;
52414;SDS011;38340;52.964;6.086;2022-12-18T03:35:45;77.95;;;34.13;;
52414;SDS011;38340;52.964;6.086;2022-12-18T03:38:11;75.97;;;34.58;;
52414;SDS011;38340;52.964;6.086;2022-12-18T03:43:11;121.50;;;37.92;;
52414;SDS011;38340;52.964;6.086;2022-12-18T03:45:48;66.80;;;32.42;;
52414;SDS011;38340;52.964;6.086;2022-12-18T03:48:20;61.85;;;30.73;;
52414;SDS011;38340;52.964;6.086;2022-12-18T03:51:10;69.15;;;32.00;;
52414;SDS011;38340;52.964;6.086;2022-12-18T03:53:46;81.32;;;33.10;;
52414;SDS011;38340;52.964;6.086;2022-12-18T03:56:26;62.30;;;30.73;;
52414;SDS011;38340;52.964;6.086;2022-12-18T03:58:56;70.97;;;33.20;;
52414;SDS011;38340;52.964;6.086;2022-12-18T04:01:31;71.95;;;32.78;;
52414;SDS011;38340;52.964;6.086;2022-12-18T04:04:11;65.82;;;30.48;;
52414;SDS011;38340;52.964;6.086;2022-12-18T04:06:39;75.20;;;30.02;;
52414;SDS011;38340;52.964;6.086;2022-12-18T04:09:06;69.68;;;31.15;;
52414;SDS011;38340;52.964;6.086;2022-12-18T04:11:32;62.78;;;29.17;;
52414;SDS011;38340;52.964;6.086;2022-12-18T04:13:58;60.75;;;29.05;;
52414;SDS011;38340;52.964;6.086;2022-12-18T04:16:25;60.92;;;29.75;;
52414;SDS011;38340;52.964;6.086;2022-12-18T04:18:51;60.42;;;27.40;;
52414;SDS011;38340;52.964;6.086;2022-12-18T04:21:16;68.45;;;30.60;;
52414;SDS011;38340;52.964;6.086;2022-12-18T04:23:42;83.05;;;30.90;;
52414;SDS011;38340;52.964;6.086;2022-12-18T04:26:08;58.83;;;28.92;;
52414;SDS011;38340;52.964;6.086;2022-12-18T04:28:34;61.17;;;26.40;;
52414;SDS011;38340;52.964;6.086;2022-12-18T04:30:59;66.85;;;28.30;;
52414;SDS011;38340;52.964;6.086;2022-12-18T04:33:25;66.85;;;30.58;;
52414;SDS011;38340;52.964;6.086;2022-12-18T04:35:51;62.67;;;29.60;;
52414;SDS011;38340;52.964;6.086;2022-12-18T04:38:16;52.22;;;25.77;;
52414;SDS011;38340;52.964;6.086;2022-12-18T04:40:42;51.13;;;26.80;;
52414;SDS011;38340;52.964;6.086;2022-12-18T04:43:08;62.00;;;27.35;;
52414;SDS011;38340;52.964;6.086;2022-12-18T04:45:34;57.90;;;27.20;;
52414;SDS011;38340;52.964;6.086;2022-12-18T04:48:00;52.47;;;25.48;;
52414;SDS011;38340;52.964;6.086;2022-12-18T04:50:27;56.10;;;28.80;;
52414;SDS011;38340;52.964;6.086;2022-12-18T04:52:53;94.57;;;30.40;;
52414;SDS011;38340;52.964;6.086;2022-12-18T04:55:19;54.92;;;25.55;;
52414;SDS011;38340;52.964;6.086;2022-12-18T04:57:44;62.15;;;27.50;;
52414;SDS011;38340;52.964;6.086;2022-12-18T05:00:10;59.40;;;27.67;;
52414;SDS011;38340;52.964;6.086;2022-12-18T05:02:36;51.80;;;24.67;;
52414;SDS011;38340;52.964;6.086;2022-12-18T05:05:02;59.53;;;27.27;;
52414;SDS011;38340;52.964;6.086;2022-12-18T05:07:28;59.75;;;26.48;;
52414;SDS011;38340;52.964;6.086;2022-12-18T05:09:54;53.33;;;25.73;;
52414;SDS011;38340;52.964;6.086;2022-12-18T05:12:19;50.97;;;25.17;;
52414;SDS011;38340;52.964;6.086;2022-12-18T05:14:45;52.15;;;26.35;;
52414;SDS011;38340;52.964;6.086;2022-12-18T05:17:11;57.35;;;25.55;;
52414;SDS011;38340;52.964;6.086;2022-12-18T05:19:36;54.35;;;25.25;;
52414;SDS011;38340;52.964;6.086;2022-12-18T05:22:02;53.30;;;26.20;;
52414;SDS011;38340;52.964;6.086;2022-12-18T05:24:27;57.83;;;24.83;;
52414;SDS011;38340;52.964;6.086;2022-12-18T05:26:53;57.13;;;24.88;;
52414;SDS011;38340;52.964;6.086;2022-12-18T05:29:19;53.65;;;26.10;;
52414;SDS011;38340;52.964;6.086;2022-12-18T05:31:44;51.03;;;24.30;;
52414;SDS011;38340;52.964;6.086;2022-12-18T05:34:10;47.25;;;25.35;;
52414;SDS011;38340;52.964;6.086;2022-12-18T05:36:36;43.67;;;23.35;;
52414;SDS011;38340;52.964;6.086;2022-12-18T05:39:02;49.30;;;24.33;;
52414;SDS011;38340;52.964;6.086;2022-12-18T05:41:28;49.55;;;23.95;;
52414;SDS011;38340;52.964;6.086;2022-12-18T05:43:54;50.85;;;24.23;;
52414;SDS011;38340;52.964;6.086;2022-12-18T05:46:19;50.78;;;23.38;;
52414;SDS011;38340;52.964;6.086;2022-12-18T05:48:45;47.53;;;22.90;;
52414;SDS011;38340;52.964;6.086;2022-12-18T05:51:15;46.88;;;21.83;;
52414;SDS011;38340;52.964;6.086;2022-12-18T05:53:43;61.17;;;24.88;;
52414;SDS011;38340;52.964;6.086;2022-12-18T05:56:13;52.80;;;24.00;;
52414;SDS011;38340;52.964;6.086;2022-12-18T05:58:40;47.92;;;23.88;;
52414;SDS011;38340;52.964;6.086;2022-12-18T06:01:25;53.28;;;25.30;;
52414;SDS011;38340;52.964;6.086;2022-12-18T06:03:51;50.10;;;24.40;;
52414;SDS011;38340;52.964;6.086;2022-12-18T06:06:18;46.67;;;23.30;;
52414;SDS011;38340;52.964;6.086;2022-12-18T06:08:46;44.63;;;21.70;;
52414;SDS011;38340;52.964;6.086;2022-12-18T06:11:11;48.00;;;22.88;;
52414;SDS011;38340;52.964;6.086;2022-12-18T06:13:38;47.97;;;23.27;;
52414;SDS011;38340;52.964;6.086;2022-12-18T06:16:04;50.40;;;23.17;;
52414;SDS011;38340;52.964;6.086;2022-12-18T06:18:31;46.95;;;22.55;;
52414;SDS011;38340;52.964;6.086;2022-12-18T06:20:57;47.53;;;22.95;;
52414;SDS011;38340;52.964;6.086;2022-12-18T06:23:24;53.30;;;22.13;;
52414;SDS011;38340;52.964;6.086;2022-12-18T06:25:50;63.33;;;23.98;;
52414;SDS011;38340;52.964;6.086;2022-12-18T06:28:16;66.45;;;23.83;;
52414;SDS011;38340;52.964;6.086;2022-12-18T06:30:47;43.65;;;21.92;;
52414;SDS011;38340;52.964;6.086;2022-12-18T06:33:14;140.82;;;30.10;;
52414;SDS011;38340;52.964;6.086;2022-12-18T06:35:40;38.97;;;19.25;;
52414;SDS011;38340;52.964;6.086;2022-12-18T06:38:06;41.35;;;21.90;;
52414;SDS011;38340;52.964;6.086;2022-12-18T06:40:32;60.88;;;23.17;;
52414;SDS011;38340;52.964;6.086;2022-12-18T06:42:58;44.65;;;21.90;;
52414;SDS011;38340;52.964;6.086;2022-12-18T06:45:23;52.03;;;21.60;;
52414;SDS011;38340;52.964;6.086;2022-12-18T06:47:49;100.35;;;26.75;;
52414;SDS011;38340;52.964;6.086;2022-12-18T06:50:15;81.15;;;24.88;;
52414;SDS011;38340;52.964;6.086;2022-12-18T06:52:41;90.90;;;26.35;;
52414;SDS011;38340;52.964;6.086;2022-12-18T06:55:09;121.63;;;30.23;;
52414;SDS011;38340;52.964;6.086;2022-12-18T06:57:35;1340.60;;;202.55;;
52414;SDS011;38340;52.964;6.086;2022-12-18T07:00:02;657.17;;;111.53;;
52414;SDS011;38340;52.964;6.086;2022-12-18T07:02:32;520.35;;;83.90;;
52414;SDS011;38340;52.964;6.086;2022-12-18T07:04:57;42.97;;;21.33;;
52414;SDS011;38340;52.964;6.086;2022-12-18T07:07:23;94.78;;;26.05;;
52414;SDS011;38340;52.964;6.086;2022-12-18T07:09:49;177.68;;;31.73;;
52414;SDS011;38340;52.964;6.086;2022-12-18T07:12:15;40.15;;;20.40;;
52414;SDS011;38340;52.964;6.086;2022-12-18T07:14:41;282.20;;;42.55;;
52414;SDS011;38340;52.964;6.086;2022-12-18T07:17:07;252.13;;;43.17;;
52414;SDS011;38340;52.964;6.086;2022-12-18T07:19:33;273.75;;;47.83;;
52414;SDS011;38340;52.964;6.086;2022-12-18T07:21:59;107.90;;;26.92;;
52414;SDS011;38340;52.964;6.086;2022-12-18T07:24:25;137.77;;;30.35;;
52414;SDS011;38340;52.964;6.086;2022-12-18T07:26:51;168.77;;;32.53;;
52414;SDS011;38340;52.964;6.086;2022-12-18T07:29:16;86.50;;;25.05;;
52414;SDS011;38340;52.964;6.086;2022-12-18T07:31:42;108.28;;;28.65;;
52414;SDS011;38340;52.964;6.086;2022-12-18T07:34:12;51.35;;;20.48;;
52414;SDS011;38340;52.964;6.086;2022-12-18T07:36:39;149.23;;;31.20;;
52414;SDS011;38340;52.964;6.086;2022-12-18T07:39:04;41.28;;;21.48;;
52414;SDS011;38340;52.964;6.086;2022-12-18T07:41:30;100.78;;;27.20;;
52414;SDS011;38340;52.964;6.086;2022-12-18T07:43:56;250.88;;;46.25;;
52414;SDS011;38340;52.964;6.086;2022-12-18T07:46:21;82.68;;;22.73;;
52414;SDS011;38340;52.964;6.086;2022-12-18T07:48:47;55.05;;;21.60;;
52414;SDS011;38340;52.964;6.086;2022-12-18T07:51:13;43.97;;;20.95;;
52414;SDS011;38340;52.964;6.086;2022-12-18T07:53:39;46.70;;;19.88;;
52414;SDS011;38340;52.964;6.086;2022-12-18T07:56:07;124.90;;;31.05;;
52414;SDS011;38340;52.964;6.086;2022-12-18T07:58:34;189.05;;;35.90;;
52414;SDS011;38340;52.964;6.086;2022-12-18T08:03:29;125.80;;;29.33;;
52414;SDS011;38340;52.964;6.086;2022-12-18T08:06:01;285.67;;;46.83;;
52414;SDS011;38340;52.964;6.086;2022-12-18T08:08:28;224.63;;;40.67;;
52414;SDS011;38340;52.964;6.086;2022-12-18T08:10:55;160.32;;;31.15;;
52414;SDS011;38340;52.964;6.086;2022-12-18T08:13:23;183.43;;;35.90;;
52414;SDS011;38340;52.964;6.086;2022-12-18T08:15:59;102.65;;;25.33;;
52414;SDS011;38340;52.964;6.086;2022-12-18T08:18:26;139.45;;;32.72;;
52414;SDS011;38340;52.964;6.086;2022-12-18T08:20:54;76.78;;;27.15;;
52414;SDS011;38340;52.964;6.086;2022-12-18T08:23:20;68.70;;;23.98;;
52414;SDS011;38340;52.964;6.086;2022-12-18T08:25:46;50.03;;;21.35;;
52414;SDS011;38340;52.964;6.086;2022-12-18T08:28:12;71.88;;;23.75;;
52414;SDS011;38340;52.964;6.086;2022-12-18T08:30:38;45.60;;;18.73;;
52414;SDS011;38340;52.964;6.086;2022-12-18T08:33:04;38.67;;;18.58;;
52414;SDS011;38340;52.964;6.086;2022-12-18T08:35:30;237.77;;;37.47;;
52414;SDS011;38340;52.964;6.086;2022-12-18T08:37:59;45.70;;;20.05;;
52414;SDS011;38340;52.964;6.086;2022-12-18T08:40:25;40.42;;;17.48;;
52414;SDS011;38340;52.964;6.086;2022-12-18T08:42:50;82.40;;;22.58;;
52414;SDS011;38340;52.964;6.086;2022-12-18T08:45:34;88.10;;;24.05;;
52414;SDS011;38340;52.964;6.086;2022-12-18T08:48:00;132.90;;;29.30;;
52414;SDS011;38340;52.964;6.086;2022-12-18T08:50:26;37.25;;;18.52;;
52414;SDS011;38340;52.964;6.086;2022-12-18T08:52:51;46.47;;;19.55;;
52414;SDS011;38340;52.964;6.086;2022-12-18T08:55:17;63.63;;;18.95;;
52414;SDS011;38340;52.964;6.086;2022-12-18T08:57:43;58.45;;;20.50;;
52414;SDS011;38340;52.964;6.086;2022-12-18T09:00:12;32.90;;;16.70;;
52414;SDS011;38340;52.964;6.086;2022-12-18T09:02:38;38.65;;;16.55;;
52414;SDS011;38340;52.964;6.086;2022-12-18T09:05:04;42.22;;;18.55;;
52414;SDS011;38340;52.964;6.086;2022-12-18T09:07:30;39.67;;;18.42;;
52414;SDS011;38340;52.964;6.086;2022-12-18T09:09:56;72.80;;;23.98;;
52414;SDS011;38340;52.964;6.086;2022-12-18T09:12:21;33.97;;;17.65;;
52414;SDS011;38340;52.964;6.086;2022-12-18T09:14:47;32.10;;;16.77;;
52414;SDS011;38340;52.964;6.086;2022-12-18T09:17:13;32.45;;;17.20;;
52414;SDS011;38340;52.964;6.086;2022-12-18T09:19:38;53.88;;;20.00;;
52414;SDS011;38340;52.964;6.086;2022-12-18T09:22:04;29.35;;;15.93;;
52414;SDS011;38340;52.964;6.086;2022-12-18T09:24:30;32.90;;;17.00;;
52414;SDS011;38340;52.964;6.086;2022-12-18T09:26:56;38.85;;;18.60;;
52414;SDS011;38340;52.964;6.086;2022-12-18T09:29:21;30.48;;;16.33;;
52414;SDS011;38340;52.964;6.086;2022-12-18T09:31:47;30.73;;;17.63;;
52414;SDS011;38340;52.964;6.086;2022-12-18T09:34:14;32.90;;;16.80;;
52414;SDS011;38340;52.964;6.086;2022-12-18T09:36:41;27.98;;;15.88;;
52414;SDS011;38340;52.964;6.086;2022-12-18T09:39:07;42.47;;;17.73;;
52414;SDS011;38340;52.964;6.086;2022-12-18T09:44:11;32.40;;;17.38;;
52414;SDS011;38340;52.964;6.086;2022-12-18T09:46:58;26.10;;;14.80;;
52414;SDS011;38340;52.964;6.086;2022-12-18T09:49:30;28.80;;;15.15;;
52414;SDS011;38340;52.964;6.086;2022-12-18T09:52:02;26.23;;;14.88;;
52414;SDS011;38340;52.964;6.086;2022-12-18T09:54:41;68.88;;;19.08;;
52414;SDS011;38340;52.964;6.086;2022-12-18T09:57:29;25.00;;;15.30;;
52414;SDS011;38340;52.964;6.086;2022-12-18T10:00:02;25.17;;;14.95;;
52414;SDS011;38340;52.964;6.086;2022-12-18T10:02:32;25.60;;;14.27;;
52414;SDS011;38340;52.964;6.086;2022-12-18T10:05:09;25.73;;;14.55;;
52414;SDS011;38340;52.964;6.086;2022-12-18T10:13:38;22.20;;;14.13;;
52414;SDS011;38340;52.964;6.086;2022-12-18T10:16:11;23.90;;;13.98;;
52414;SDS011;38340;52.964;6.086;2022-12-18T10:24:08;27.20;;;14.23;;
52414;SDS011;38340;52.964;6.086;2022-12-18T10:26:47;25.83;;;13.63;;
52414;SDS011;38340;52.964;6.086;2022-12-18T10:29:13;31.33;;;14.05;;
52414;SDS011;38340;52.964;6.086;2022-12-18T10:31:41;21.23;;;12.43;;
52414;SDS011;38340;52.964;6.086;2022-12-18T10:34:11;20.73;;;13.13;;
52414;SDS011;38340;52.964;6.086;2022-12-18T10:36:40;20.17;;;13.18;;
52414;SDS011;38340;52.964;6.086;2022-12-18T10:39:20;36.67;;;13.70;;
52414;SDS011;38340;52.964;6.086;2022-12-18T10:41:59;21.30;;;11.85;;
52414;SDS011;38340;52.964;6.086;2022-12-18T10:44:44;17.55;;;11.95;;
52414;SDS011;38340;52.964;6.086;2022-12-18T10:47:14;22.48;;;13.32;;
52414;SDS011;38340;52.964;6.086;2022-12-18T10:49:50;22.85;;;13.95;;
52414;SDS011;38340;52.964;6.086;2022-12-18T10:52:21;20.08;;;13.05;;
52414;SDS011;38340;52.964;6.086;2022-12-18T10:54:57;20.77;;;13.15;;
52414;SDS011;38340;52.964;6.086;2022-12-18T11:00:20;24.10;;;13.23;;
52414;SDS011;38340;52.964;6.086;2022-12-18T11:02:51;21.67;;;13.32;;
52414;SDS011;38340;52.964;6.086;2022-12-18T11:05:27;21.95;;;12.90;;
52414;SDS011;38340;52.964;6.086;2022-12-18T11:07:58;19.08;;;12.20;;
52414;SDS011;38340;52.964;6.086;2022-12-18T11:10:26;19.05;;;11.48;;
52414;SDS011;38340;52.964;6.086;2022-12-18T11:15:47;23.15;;;12.98;;
52414;SDS011;38340;52.964;6.086;2022-12-18T11:20:50;18.42;;;12.57;;
52414;SDS011;38340;52.964;6.086;2022-12-18T11:23:18;29.15;;;13.07;;
52414;SDS011;38340;52.964;6.086;2022-12-18T11:25:58;17.92;;;11.05;;
52414;SDS011;38340;52.964;6.086;2022-12-18T11:28:27;20.08;;;12.48;;
52414;SDS011;38340;52.964;6.086;2022-12-18T11:36:48;18.48;;;11.05;;
52414;SDS011;38340;52.964;6.086;2022-12-18T11:39:18;18.58;;;10.48;;
52414;SDS011;38340;52.964;6.086;2022-12-18T11:41:57;16.13;;;10.63;;
52414;SDS011;38340;52.964;6.086;2022-12-18T11:44:52;23.63;;;9.65;;
52414;SDS011;38340;52.964;6.086;2022-12-18T11:47:25;20.15;;;10.13;;
52414;SDS011;38340;52.964;6.086;2022-12-18T11:49:55;15.38;;;9.20;;
52414;SDS011;38340;52.964;6.086;2022-12-18T11:52:26;22.58;;;10.77;;
52414;SDS011;38340;52.964;6.086;2022-12-18T11:54:58;16.10;;;9.77;;
52414;SDS011;38340;52.964;6.086;2022-12-18T12:00:13;14.07;;;9.88;;
52414;SDS011;38340;52.964;6.086;2022-12-18T12:08:01;16.20;;;10.07;;
52414;SDS011;38340;52.964;6.086;2022-12-18T12:10:41;17.38;;;9.25;;
52414;SDS011;38340;52.964;6.086;2022-12-18T12:16:18;16.55;;;9.48;;
52414;SDS011;38340;52.964;6.086;2022-12-18T12:21:46;13.60;;;9.00;;
52414;SDS011;38340;52.964;6.086;2022-12-18T12:32:45;14.32;;;8.50;;
52414;SDS011;38340;52.964;6.086;2022-12-18T12:35:42;15.35;;;9.48;;
52414;SDS011;38340;52.964;6.086;2022-12-18T12:38:18;16.92;;;10.02;;
52414;SDS011;38340;52.964;6.086;2022-12-18T12:41:06;15.35;;;8.93;;
52414;SDS011;38340;52.964;6.086;2022-12-18T12:43:55;11.77;;;7.93;;
52414;SDS011;38340;52.964;6.086;2022-12-18T12:46:23;12.88;;;7.95;;
52414;SDS011;38340;52.964;6.086;2022-12-18T12:49:01;13.05;;;8.15;;
52414;SDS011;38340;52.964;6.086;2022-12-18T12:51:39;12.80;;;8.15;;
52414;SDS011;38340;52.964;6.086;2022-12-18T12:54:16;13.43;;;8.25;;
52414;SDS011;38340;52.964;6.086;2022-12-18T12:59:25;12.02;;;7.53;;
52414;SDS011;38340;52.964;6.086;2022-12-18T13:02:06;11.98;;;7.65;;
52414;SDS011;38340;52.964;6.086;2022-12-18T13:04:46;12.05;;;7.25;;
52414;SDS011;38340;52.964;6.086;2022-12-18T13:12:58;12.65;;;8.10;;
52414;SDS011;38340;52.964;6.086;2022-12-18T13:20:42;9.30;;;8.00;;
52414;SDS011;38340;52.964;6.086;2022-12-18T13:31:11;10.10;;;6.82;;
52414;SDS011;38340;52.964;6.086;2022-12-18T13:36:09;11.88;;;7.43;;
52414;SDS011;38340;52.964;6.086;2022-12-18T13:38:37;11.45;;;7.50;;
52414;SDS011;38340;52.964;6.086;2022-12-18T13:41:20;10.50;;;7.43;;
52414;SDS011;38340;52.964;6.086;2022-12-18T13:43:49;14.85;;;7.63;;
52414;SDS011;38340;52.964;6.086;2022-12-18T13:51:42;11.80;;;8.65;;
52414;SDS011;38340;52.964;6.086;2022-12-18T13:54:20;12.70;;;8.48;;
52414;SDS011;38340;52.964;6.086;2022-12-18T13:57:01;10.45;;;7.53;;
52414;SDS011;38340;52.964;6.086;2022-12-18T13:59:36;11.77;;;7.25;;
52414;SDS011;38340;52.964;6.086;2022-12-18T14:02:13;9.85;;;7.07;;
52414;SDS011;38340;52.964;6.086;2022-12-18T14:04:46;9.40;;;6.70;;
52414;SDS011;38340;52.964;6.086;2022-12-18T14:07:13;11.50;;;6.68;;
52414;SDS011;38340;52.964;6.086;2022-12-18T14:09:41;8.60;;;6.35;;
52414;SDS011;38340;52.964;6.086;2022-12-18T14:12:20;11.80;;;6.68;;
52414;SDS011;38340;52.964;6.086;2022-12-18T14:17:52;12.70;;;7.15;;
52414;SDS011;38340;52.964;6.086;2022-12-18T14:20:39;9.25;;;6.65;;
52414;SDS011;38340;52.964;6.086;2022-12-18T14:23:28;10.45;;;6.43;;
52414;SDS011;38340;52.964;6.086;2022-12-18T14:28:20;8.75;;;6.15;;
52414;SDS011;38340;52.964;6.086;2022-12-18T14:30:47;11.57;;;6.75;;
52414;SDS011;38340;52.964;6.086;2022-12-18T14:33:14;10.35;;;6.30;;
52414;SDS011;38340;52.964;6.086;2022-12-18T14:35:55;9.65;;;6.57;;
52414;SDS011;38340;52.964;6.086;2022-12-18T14:43:29;10.52;;;6.55;;
52414;SDS011;38340;52.964;6.086;2022-12-18T14:45:58;13.07;;;7.53;;
52414;SDS011;38340;52.964;6.086;2022-12-18T14:51:03;9.73;;;6.60;;
52414;SDS011;38340;52.964;6.086;2022-12-18T14:53:41;8.48;;;6.38;;
52414;SDS011;38340;52.964;6.086;2022-12-18T14:56:12;10.10;;;6.13;;
52414;SDS011;38340;52.964;6.086;2022-12-18T14:58:51;10.48;;;6.32;;
52414;SDS011;38340;52.964;6.086;2022-12-18T15:01:27;10.15;;;6.53;;
52414;SDS011;38340;52.964;6.086;2022-12-18T15:03:58;9.55;;;6.78;;
52414;SDS011;38340;52.964;6.086;2022-12-18T15:06:35;9.98;;;6.65;;
52414;SDS011;38340;52.964;6.086;2022-12-18T15:09:20;9.18;;;6.63;;
52414;SDS011;38340;52.964;6.086;2022-12-18T15:11:47;11.23;;;7.13;;
52414;SDS011;38340;52.964;6.086;2022-12-18T15:14:33;11.05;;;7.40;;
52414;SDS011;38340;52.964;6.086;2022-12-18T15:17:03;11.80;;;6.07;;
52414;SDS011;38340;52.964;6.086;2022-12-18T15:19:39;11.75;;;6.68;;
52414;SDS011;38340;52.964;6.086;2022-12-18T15:22:24;8.77;;;6.95;;
52414;SDS011;38340;52.964;6.086;2022-12-18T15:27:22;12.55;;;7.45;;
52414;SDS011;38340;52.964;6.086;2022-12-18T15:30:02;10.05;;;6.88;;
52414;SDS011;38340;52.964;6.086;2022-12-18T15:32:30;9.15;;;6.10;;
52414;SDS011;38340;52.964;6.086;2022-12-18T15:37:34;9.25;;;6.20;;
52414;SDS011;38340;52.964;6.086;2022-12-18T15:39:59;10.13;;;6.38;;
52414;SDS011;38340;52.964;6.086;2022-12-18T15:42:25;10.88;;;6.78;;
52414;SDS011;38340;52.964;6.086;2022-12-18T15:45:12;9.50;;;6.32;;
52414;SDS011;38340;52.964;6.086;2022-12-18T15:47:38;12.40;;;8.27;;
52414;SDS011;38340;52.964;6.086;2022-12-18T15:50:04;12.20;;;7.03;;
52414;SDS011;38340;52.964;6.086;2022-12-18T15:52:36;10.90;;;7.53;;
52414;SDS011;38340;52.964;6.086;2022-12-18T15:55:16;11.48;;;7.72;;
52414;SDS011;38340;52.964;6.086;2022-12-18T15:58:03;9.90;;;6.80;;
52414;SDS011;38340;52.964;6.086;2022-12-18T16:00:29;11.13;;;7.60;;
52414;SDS011;38340;52.964;6.086;2022-12-18T16:02:56;12.63;;;8.05;;
52414;SDS011;38340;52.964;6.086;2022-12-18T16:05:22;19.38;;;11.88;;
52414;SDS011;38340;52.964;6.086;2022-12-18T16:07:49;19.08;;;10.85;;
52414;SDS011;38340;52.964;6.086;2022-12-18T16:10:15;31.40;;;13.95;;
52414;SDS011;38340;52.964;6.086;2022-12-18T16:12:41;32.53;;;15.63;;
52414;SDS011;38340;52.964;6.086;2022-12-18T16:15:07;20.42;;;13.05;;
52414;SDS011;38340;52.964;6.086;2022-12-18T16:17:38;11.93;;;8.15;;
52414;SDS011;38340;52.964;6.086;2022-12-18T16:20:15;17.92;;;10.38;;
52414;SDS011;38340;52.964;6.086;2022-12-18T16:22:42;12.15;;;8.13;;
52414;SDS011;38340;52.964;6.086;2022-12-18T16:25:19;13.48;;;8.13;;
52414;SDS011;38340;52.964;6.086;2022-12-18T16:27:47;15.13;;;8.88;;
52414;SDS011;38340;52.964;6.086;2022-12-18T16:30:18;11.38;;;7.05;;
52414;SDS011;38340;52.964;6.086;2022-12-18T16:32:45;11.82;;;7.28;;
52414;SDS011;38340;52.964;6.086;2022-12-18T16:35:11;13.00;;;7.45;;
52414;SDS011;38340;52.964;6.086;2022-12-18T16:37:38;13.13;;;7.82;;